Home > Products > Valid Products > TAF

000
FTUS43 KARX 201722
TAFLSE
TAF
KLSE 201722Z 2018/2118 16006KT P6SM OVC015
     FM211000 15006KT 4SM BR OVC010=



000
FTUS43 KARX 201722
TAFLSE
TAF
KLSE 201722Z 2018/2118 16006KT P6SM OVC015
     FM211000 15006KT 4SM BR OVC010=



000
FTUS43 KARX 201722
TAFRST
TAF
KRST 201722Z 2018/2118 17008KT 2SM BR OVC005
     FM202200 17010KT 4SM BR SCT006 OVC007
     FM210100 17010KT 1SM BR OVC003
     FM211100 16012KT 1/2SM -FZDZ FZFG VV002
     FM211600 17015KT 1SM -FZDZ BR OVC003=



000
FTUS43 KARX 201722
TAFRST
TAF
KRST 201722Z 2018/2118 17008KT 2SM BR OVC005
     FM202200 17010KT 4SM BR SCT006 OVC007
     FM210100 17010KT 1SM BR OVC003
     FM211100 16012KT 1/2SM -FZDZ FZFG VV002
     FM211600 17015KT 1SM -FZDZ BR OVC003=



000
FTUS43 KARX 201605 AAB
TAFLSE
TAF AMD
KLSE 201605Z 2016/2112 16006KT P6SM OVC015=



000
FTUS43 KARX 201605 AAB
TAFLSE
TAF AMD
KLSE 201605Z 2016/2112 16006KT P6SM OVC015=



000
FTUS43 KARX 201520 AAB
TAFRST
TAF AMD
KRST 201520Z 2015/2112 17008KT 1/4SM FG OVC002
      TEMPO 2015/2017 3/4SM BR OVC003
     FM201700 17008KT 1SM BR OVC006
     FM201900 17010KT 3SM BR SCT006 OVC010=



000
FTUS43 KARX 201520 AAB
TAFRST
TAF AMD
KRST 201520Z 2015/2112 17008KT 1/4SM FG OVC002
      TEMPO 2015/2017 3/4SM BR OVC003
     FM201700 17008KT 1SM BR OVC006
     FM201900 17010KT 3SM BR SCT006 OVC010=



000
FTUS43 KARX 201339 AAA
TAFRST
TAF AMD
KRST 201339Z 2014/2112 17008KT 2SM BR OVC004
     FM201500 17008KT 4SM BR OVC008
      TEMPO 2019/2022 SCT008 BKN011=



000
FTUS43 KARX 201339 AAA
TAFRST
TAF AMD
KRST 201339Z 2014/2112 17008KT 2SM BR OVC004
     FM201500 17008KT 4SM BR OVC008
      TEMPO 2019/2022 SCT008 BKN011=



000
FTUS43 KARX 201217 AAA
TAFLSE
TAF AMD
KLSE 201217Z 2012/2112 17006KT P6SM -SN BKN017 OVC025
     FM201600 16005KT P6SM OVC029=



000
FTUS43 KARX 201217 AAA
TAFLSE
TAF AMD
KLSE 201217Z 2012/2112 17006KT P6SM -SN BKN017 OVC025
     FM201600 16005KT P6SM OVC029=



000
FTUS43 KARX 201120
TAFRST
TAF
KRST 201120Z 2012/2112 17008KT 3SM BR OVC006
      TEMPO 2012/2014 -FZDZSN
     FM201500 17008KT 6SM BR OVC009
     FM201800 17009KT P6SM OVC013
     FM210600 17009KT 5SM BR OVC007=



000
FTUS43 KARX 201120
TAFLSE
TAF
KLSE 201120Z 2012/2112 17006KT P6SM -SN OVC029
     FM201600 16005KT P6SM OVC029=



000
FTUS43 KARX 201030 AAB
TAFLSE
TAF AMD
KLSE 201030Z 2011/2106 17006KT P6SM -SN BKN025
     FM201600 16005KT P6SM OVC018
     FM201800 16005KT P6SM OVC023=



000
FTUS43 KARX 201030 AAB
TAFLSE
TAF AMD
KLSE 201030Z 2011/2106 17006KT P6SM -SN BKN025
     FM201600 16005KT P6SM OVC018
     FM201800 16005KT P6SM OVC023=



000
FTUS43 KARX 201028 AAB
TAFRST
TAF AMD
KRST 201028Z 2010/2106 17008KT 3SM -FZDZ BR OVC007
     FM201500 17008KT 6SM BR OVC009
     FM201800 17009KT P6SM OVC013=



000
FTUS43 KARX 201028 AAB
TAFRST
TAF AMD
KRST 201028Z 2010/2106 17008KT 3SM -FZDZ BR OVC007
     FM201500 17008KT 6SM BR OVC009
     FM201800 17009KT P6SM OVC013=



000
FTUS43 KARX 200929 AAA
TAFLSE
TAF AMD
KLSE 200929Z 2009/2106 17006KT P6SM -SN SCT025 OVC035
     FM201600 16005KT P6SM OVC018
     FM201800 16005KT P6SM OVC023=



000
FTUS43 KARX 200929 AAA
TAFLSE
TAF AMD
KLSE 200929Z 2009/2106 17006KT P6SM -SN SCT025 OVC035
     FM201600 16005KT P6SM OVC018
     FM201800 16005KT P6SM OVC023=



000
FTUS43 KARX 200925 AAA
TAFRST
TAF AMD
KRST 200925Z 2009/2106 17008KT 5SM -FZDZ BR OVC008
     FM201500 17008KT 6SM BR OVC009
     FM201800 17009KT P6SM OVC013=



000
FTUS43 KARX 200925 AAA
TAFRST
TAF AMD
KRST 200925Z 2009/2106 17008KT 5SM -FZDZ BR OVC008
     FM201500 17008KT 6SM BR OVC009
     FM201800 17009KT P6SM OVC013=



000
FTUS43 KARX 200522
TAFRST
TAF
KRST 200522Z 2006/2106 16008KT 6SM BR OVC012
     FM201000 17008KT 4SM BR OVC007
     FM201800 17009KT P6SM OVC013=



000
FTUS43 KARX 200522
TAFLSE
TAF
KLSE 200522Z 2006/2106 16005KT P6SM OVC025
     FM201300 16005KT P6SM OVC018
     FM201800 16005KT P6SM OVC023=



000
FTUS43 KARX 200522
TAFLSE
TAF
KLSE 200522Z 2006/2106 16005KT P6SM OVC025
     FM201300 16005KT P6SM OVC018
     FM201800 16005KT P6SM OVC023=



000
FTUS43 KARX 200522
TAFRST
TAF
KRST 200522Z 2006/2106 16008KT 6SM BR OVC012
     FM201000 17008KT 4SM BR OVC007
     FM201800 17009KT P6SM OVC013=



000
FTUS43 KARX 200447 AAB
TAFRST
TAF AMD
KRST 200447Z 2005/2024 16010KT 6SM BR OVC012
     FM201000 17008KT 4SM BR OVC007
     FM201900 18009KT 6SM BR OVC011=



000
FTUS43 KARX 200447 AAB
TAFRST
TAF AMD
KRST 200447Z 2005/2024 16010KT 6SM BR OVC012
     FM201000 17008KT 4SM BR OVC007
     FM201900 18009KT 6SM BR OVC011=



000
FTUS43 KARX 200204 AAA
TAFRST
TAF AMD
KRST 200204Z 2002/2024 16010KT 6SM BR OVC012
      TEMPO 2002/2004 SCT012 OVC035
     FM200600 17008KT 4SM BR OVC007
     FM201900 18009KT 6SM BR OVC011=



000
FTUS43 KARX 200204 AAA
TAFRST
TAF AMD
KRST 200204Z 2002/2024 16010KT 6SM BR OVC012
      TEMPO 2002/2004 SCT012 OVC035
     FM200600 17008KT 4SM BR OVC007
     FM201900 18009KT 6SM BR OVC011=



000
FTUS43 KARX 200201 AAA
TAFLSE
TAF AMD
KLSE 200201Z 2002/2024 16005KT P6SM OVC035
     FM200800 15004KT P6SM OVC025
     FM201300 15004KT P6SM OVC018=



000
FTUS43 KARX 200201 AAA
TAFLSE
TAF AMD
KLSE 200201Z 2002/2024 16005KT P6SM OVC035
     FM200800 15004KT P6SM OVC025
     FM201300 15004KT P6SM OVC018=



000
FTUS43 KARX 192320
TAFRST
TAF
KRST 192320Z 2000/2024 16010KT 6SM BR OVC012
     FM200300 17008KT 4SM BR OVC007
     FM201900 18009KT 6SM BR OVC011=



000
FTUS43 KARX 192320
TAFRST
TAF
KRST 192320Z 2000/2024 16010KT 6SM BR OVC012
     FM200300 17008KT 4SM BR OVC007
     FM201900 18009KT 6SM BR OVC011=



000
FTUS43 KARX 192320
TAFLSE
TAF
KLSE 192320Z 2000/2024 17004KT P6SM OVC025
     FM201200 15004KT P6SM BKN018=



000
FTUS43 KARX 192320
TAFLSE
TAF
KLSE 192320Z 2000/2024 17004KT P6SM OVC025
     FM201200 15004KT P6SM BKN018=



000
FTUS43 KARX 192200 AAA
TAFLSE
TAF AMD
KLSE 192200Z 1922/2018 17004KT P6SM SCT012 OVC025
     FM201000 15004KT P6SM BKN012=



000
FTUS43 KARX 192000 AAA
TAFRST
TAF AMD
KRST 192000Z 1920/2018 16008KT P6SM OVC012
     FM200100 17008KT 4SM BR OVC007=



000
FTUS43 KARX 192000 AAA
TAFRST
TAF AMD
KRST 192000Z 1920/2018 16008KT P6SM OVC012
     FM200100 17008KT 4SM BR OVC007=



000
FTUS43 KARX 192000 AAA
TAFRST
TAF AMD
KRST 192000Z 1920/2018 16008KT P6SM OVC012
     FM200100 17008KT 4SM BR OVC007=



000
FTUS43 KARX 192000 AAA
TAFRST
TAF AMD
KRST 192000Z 1920/2018 16008KT P6SM OVC012
     FM200100 17008KT 4SM BR OVC007=



000
FTUS43 KARX 191725
TAFRST
TAF
KRST 191725Z 1918/2018 16008KT P6SM OVC020
     FM192200 16008KT P6SM OVC012
     FM200100 17008KT 4SM BR OVC007=



000
FTUS43 KARX 191725
TAFLSE
TAF
KLSE 191725Z 1918/2018 15004KT P6SM OVC040
     FM200300 15004KT P6SM SCT012 BKN025
     FM201000 15004KT P6SM BKN012=



000
FTUS43 KARX 191725
TAFLSE
TAF
KLSE 191725Z 1918/2018 15004KT P6SM OVC040
     FM200300 15004KT P6SM SCT012 BKN025
     FM201000 15004KT P6SM BKN012=



000
FTUS43 KARX 191638 AAA
TAFRST
TAF AMD
KRST 191638Z 1917/2012 16008KT P6SM BKN025
     FM200400 17008KT 4SM BR OVC008=



000
FTUS43 KARX 191638 AAA
TAFRST
TAF AMD
KRST 191638Z 1917/2012 16008KT P6SM BKN025
     FM200400 17008KT 4SM BR OVC008=



000
FTUS43 KARX 191507 AAA
TAFLSE
TAF AMD
KLSE 191507Z 1915/2012 VRB03KT P6SM OVC040
     FM191800 18004KT P6SM OVC020
     FM200300 15004KT 6SM BR SCT007 BKN012=



000
FTUS43 KARX 191507 AAA
TAFLSE
TAF AMD
KLSE 191507Z 1915/2012 VRB03KT P6SM OVC040
     FM191800 18004KT P6SM OVC020
     FM200300 15004KT 6SM BR SCT007 BKN012=



000
FTUS43 KARX 191120
TAFLSE
TAF
KLSE 191120Z 1912/2012 VRB03KT P6SM OVC020
     FM200300 15004KT 6SM BR SCT007 BKN012=



000
FTUS43 KARX 191120
TAFRST
TAF
KRST 191120Z 1912/2012 18006KT P6SM BKN025
     FM191500 18006KT P6SM BKN015
     FM200400 17008KT 4SM BR OVC008=



000
FTUS43 KARX 191120
TAFLSE
TAF
KLSE 191120Z 1912/2012 VRB03KT P6SM OVC020
     FM200300 15004KT 6SM BR SCT007 BKN012=



000
FTUS43 KARX 191120
TAFRST
TAF
KRST 191120Z 1912/2012 18006KT P6SM BKN025
     FM191500 18006KT P6SM BKN015
     FM200400 17008KT 4SM BR OVC008=



000
FTUS43 KARX 190520
TAFRST
TAF
KRST 190520Z 1906/2006 VRB03KT P6SM SCT013 BKN070
     FM192000 17007KT P6SM OVC015=



000
FTUS43 KARX 190520
TAFLSE
TAF
KLSE 190520Z 1906/2006 15003KT P6SM OVC017
      TEMPO 1915/1919 SCT017 BKN080=



000
FTUS43 KARX 190520
TAFLSE
TAF
KLSE 190520Z 1906/2006 15003KT P6SM OVC017
      TEMPO 1915/1919 SCT017 BKN080=



000
FTUS43 KARX 190520
TAFRST
TAF
KRST 190520Z 1906/2006 VRB03KT P6SM SCT013 BKN070
     FM192000 17007KT P6SM OVC015=



000
FTUS43 KARX 190131 AAA
TAFRST
TAF AMD
KRST 190131Z 1902/1924 VRB03KT P6SM OVC013
     FM190600 VRB03KT P6SM SCT013 BKN070
     FM191500 17007KT P6SM OVC013=



000
FTUS43 KARX 190131 AAA
TAFRST
TAF AMD
KRST 190131Z 1902/1924 VRB03KT P6SM OVC013
     FM190600 VRB03KT P6SM SCT013 BKN070
     FM191500 17007KT P6SM OVC013=



000
FTUS43 KARX 190131 AAA
TAFRST
TAF AMD
KRST 190131Z 1902/1924 VRB03KT P6SM OVC013
     FM190600 VRB03KT P6SM SCT013 BKN070
     FM191500 17007KT P6SM OVC013=



000
FTUS43 KARX 190131 AAA
TAFRST
TAF AMD
KRST 190131Z 1902/1924 VRB03KT P6SM OVC013
     FM190600 VRB03KT P6SM SCT013 BKN070
     FM191500 17007KT P6SM OVC013=



000
FTUS43 KARX 182320
TAFRST
TAF
KRST 182320Z 1900/1924 VRB03KT P6SM OVC015
     FM191800 17007KT P6SM OVC015=



000
FTUS43 KARX 182320
TAFLSE
TAF
KLSE 182320Z 1900/1924 VRB03KT P6SM OVC018=



000
FTUS43 KARX 182320
TAFLSE
TAF
KLSE 182320Z 1900/1924 VRB03KT P6SM OVC018=



000
FTUS43 KARX 182320
TAFRST
TAF
KRST 182320Z 1900/1924 VRB03KT P6SM OVC015
     FM191800 17007KT P6SM OVC015=



000
FTUS43 KARX 181740
TAFRST
TAF
KRST 181740Z 1818/1918 VRB03KT P6SM -SHSN OVC014=



000
FTUS43 KARX 181740
TAFLSE
TAF
KLSE 181740Z 1818/1918 VRB03KT P6SM OVC020=



000
FTUS43 KARX 181740
TAFLSE
TAF
KLSE 181740Z 1818/1918 VRB03KT P6SM OVC020=



000
FTUS43 KARX 181740
TAFRST
TAF
KRST 181740Z 1818/1918 VRB03KT P6SM -SHSN OVC014=



000
FTUS43 KARX 181302 AAA
TAFRST
TAF AMD
KRST 181302Z 1813/1912 VRB03KT P6SM OVC014=



000
FTUS43 KARX 181302 AAA
TAFRST
TAF AMD
KRST 181302Z 1813/1912 VRB03KT P6SM OVC014=



000
FTUS43 KARX 181302 AAA
TAFRST
TAF AMD
KRST 181302Z 1813/1912 VRB03KT P6SM OVC014=



000
FTUS43 KARX 181302 AAA
TAFRST
TAF AMD
KRST 181302Z 1813/1912 VRB03KT P6SM OVC014=



000
FTUS43 KARX 181130
TAFRST
TAF
KRST 181130Z 1812/1912 VRB03KT P6SM BKN080
     FM181800 VRB03KT P6SM BKN015=



000
FTUS43 KARX 181130
TAFLSE
TAF
KLSE 181130Z 1812/1912 VRB03KT P6SM OVC020=



000
FTUS43 KARX 181032 AAB
TAFRST
TAF AMD
KRST 181032Z 1811/1906 VRB03KT P6SM SCT080
     FM181800 VRB03KT P6SM BKN015=



000
FTUS43 KARX 181032 AAB
TAFRST
TAF AMD
KRST 181032Z 1811/1906 VRB03KT P6SM SCT080
     FM181800 VRB03KT P6SM BKN015=



000
FTUS43 KARX 180706 AAA
TAFRST
TAF AMD
KRST 180706Z 1807/1906 VRB03KT P6SM BKN012
      TEMPO 1808/1812 5SM BR SCT012=



000
FTUS43 KARX 180706 AAA
TAFRST
TAF AMD
KRST 180706Z 1807/1906 VRB03KT P6SM BKN012
      TEMPO 1808/1812 5SM BR SCT012=



000
FTUS43 KARX 180704 CCA
TAFLSE
TAF COR
KLSE 180704Z 1807/1906 34005KT P6SM OVC023=



000
FTUS43 KARX 180704 CCA
TAFLSE
TAF COR
KLSE 180704Z 1807/1906 34005KT P6SM OVC023=



000
FTUS43 KARX 180703 AAA
TAFLSE
TAF AMD
KLSE 180703Z 1807/1906 34005KT P6SM SCT023=



000
FTUS43 KARX 180703 AAA
TAFLSE
TAF AMD
KLSE 180703Z 1807/1906 34005KT P6SM SCT023=



000
FTUS43 KARX 180525
TAFRST
TAF
KRST 180525Z 1806/1906 VRB03KT 6SM BR BKN014
     FM180700 VRB03KT 5SM BR SCT012
     FM181200 VRB03KT P6SM BKN012=



000
FTUS43 KARX 180525
TAFLSE
TAF
KLSE 180525Z 1806/1906 36005KT P6SM SCT025
     FM180800 36003KT P6SM BKN025=



000
FTUS43 KARX 180525
TAFRST
TAF
KRST 180525Z 1806/1906 VRB03KT 6SM BR BKN014
     FM180700 VRB03KT 5SM BR SCT012
     FM181200 VRB03KT P6SM BKN012=



000
FTUS43 KARX 180525
TAFLSE
TAF
KLSE 180525Z 1806/1906 36005KT P6SM SCT025
     FM180800 36003KT P6SM BKN025=



000
FTUS43 KARX 180354 AAA
TAFLSE
TAF AMD
KLSE 180354Z 1804/1824 36003KT P6SM BKN020=



000
FTUS43 KARX 180354 AAA
TAFLSE
TAF AMD
KLSE 180354Z 1804/1824 36003KT P6SM BKN020=



000
FTUS43 KARX 180354 AAA
TAFLSE
TAF AMD
KLSE 180354Z 1804/1824 36003KT P6SM BKN020=



000
FTUS43 KARX 180354 AAA
TAFLSE
TAF AMD
KLSE 180354Z 1804/1824 36003KT P6SM BKN020=



000
FTUS43 KARX 180258 AAA
TAFRST
TAF AMD
KRST 180258Z 1803/1824 VRB03KT 6SM BR BKN014
     FM181700 VRB03KT P6SM BKN012=



000
FTUS43 KARX 180258 AAA
TAFRST
TAF AMD
KRST 180258Z 1803/1824 VRB03KT 6SM BR BKN014
     FM181700 VRB03KT P6SM BKN012=



000
FTUS43 KARX 172326 CCA
TAFRST
TAF COR
KRST 172326Z 1800/1824 33008KT P6SM BKN015
     FM180300 VRB03KT 5SM BR SCT012
     FM180700 01004KT 4SM BR BKN012
     FM181700 VRB03KT P6SM BKN012=



000
FTUS43 KARX 172326 CCA
TAFRST
TAF COR
KRST 172326Z 1800/1824 33008KT P6SM BKN015
     FM180300 VRB03KT 5SM BR SCT012
     FM180700 01004KT 4SM BR BKN012
     FM181700 VRB03KT P6SM BKN012=



000
FTUS43 KARX 172320
TAFRST
TAF
KRST 172320Z 1800/1824 33008KT P6SM SCT012
      TEMPO 1801/1803 BKN012
     FM180300 VRB03KT 5SM BR SCT012
     FM180700 01004KT 4SM BR BKN012
     FM181700 VRB03KT P6SM BKN012=



000
FTUS43 KARX 172320
TAFLSE
TAF
KLSE 172320Z 1800/1824 36003KT P6SM BKN023
      TEMPO 1804/1808 SCT023=



000
FTUS43 KARX 172320
TAFRST
TAF
KRST 172320Z 1800/1824 33008KT P6SM SCT012
      TEMPO 1801/1803 BKN012
     FM180300 VRB03KT 5SM BR SCT012
     FM180700 01004KT 4SM BR BKN012
     FM181700 VRB03KT P6SM BKN012=



000
FTUS43 KARX 172320
TAFLSE
TAF
KLSE 172320Z 1800/1824 36003KT P6SM BKN023
      TEMPO 1804/1808 SCT023=



000
FTUS43 KARX 171920 AAA
TAFRST
TAF AMD
KRST 171920Z 1719/1818 33008KT P6SM SCT012
      TEMPO 1719/1721 5SM -SHSN BKN012
     FM180300 VRB03KT 5SM BR SCT012
     FM180700 01004KT 4SM BR BKN012=



000
FTUS43 KARX 171740
TAFRST
TAF
KRST 171740Z 1718/1818 33011KT 5SM -SHSN HZ BKN012
     FM172300 VRB03KT 3SM BR SCT012
     FM180600 01004KT 5SM BR BKN012=



000
FTUS43 KARX 171740
TAFLSE
TAF
KLSE 171740Z 1718/1818 32010KT P6SM BKN025
     FM180000 VRB03KT P6SM OVC020=



000
FTUS43 KARX 171740
TAFLSE
TAF
KLSE 171740Z 1718/1818 32010KT P6SM BKN025
     FM180000 VRB03KT P6SM OVC020=



000
FTUS43 KARX 171740
TAFRST
TAF
KRST 171740Z 1718/1818 33011KT 5SM -SHSN HZ BKN012
     FM172300 VRB03KT 3SM BR SCT012
     FM180600 01004KT 5SM BR BKN012=



    US Dept of Commerce
    National Oceanic and Atmospheric Administration
    National Weather Service
    1325 East West Highway
    Silver Spring, MD 20910
    Page Author: NWS Internet Services Team
Disclaimer
Information Quality
Credits
Glossary
Privacy Policy
Freedom of Information Act (FOIA)
About Us
Career Opportunities